Dzaoudzi, Comoros
Current Conditions -  °F | °C
As of 6:00 PM on Wednesday 22 Oct 2014 (Local Time) from FMCZ Reporting Station
Few Clouds Few Clouds  
Wind Chill: 27°   Ceiling: Unl
Heat Index: 29°   Visibility: 6mi
Dew Point: 21°   Wind: 14mph
Humidity: 70%   Direction: 200°SSW
Pressure: 29.94"   Gusts: NA
Location:  12.8°S, 45.28°E
Report Text: FMCZ 221500Z 20012KT 9999 FEW023 27/21 Q1014 NOSIG
Loading
Personal Weather Stations






























Interactive Weather Map
Tropical Storm Tracking
New forecast layout! Learn more

10-Day Weather Forecast

Advertisements
Track Severe Weather on mobile